Time;durP1;ratioP1;P1;durP2;ratioP2;P2;SDS_P1;SDS_P2;PMS_P1;PMS_P2;Temp;Humidity;BMP_temperature;BMP_pressure;BME280_temperature;BME280_humidity;BME280_pressure;Samples;Min_cycle;Max_cycle;Signal;HPM_P1;HPM_P2
2024/04/12 00:01:42;;;;;;;;;;;;;;;;;;5491314;25;19928;-77
2024/04/12 00:04:09;;;;;;;;;;;;;;;;;;5491140;25;19952;-78
2024/04/12 00:06:39;;;;;;;;;;;;;;;;;;5491425;25;19919;-77
2024/04/12 00:09:17;;;;;;;;;;;;;;;;;;5491256;25;19920;-76
2024/04/12 00:11:45;;;;;;;;;;;;;;;;;;5491700;25;19927;-77
2024/04/12 00:14:15;;;;;;;;;;;;;;;;;;5491069;25;19920;-77
2024/04/12 00:16:43;;;;;;;;;;;;;;;;;;5489699;25;19949;-77
2024/04/12 00:19:18;;;;;;;;;;;;;;;;;;5488895;25;19928;-77
2024/04/12 00:21:46;;;;;;;;;;;;;;;;;;5489766;25;19919;-77
2024/04/12 00:24:14;;;;;;;;;;;;;;;;;;5489063;25;19920;-78
2024/04/12 00:26:43;;;;;;;;;;;;;;;;;;5506657;25;20370;-77
2024/04/12 00:29:25;;;;;;;;;;;;;;;;;;5489030;25;19924;-77
2024/04/12 00:31:53;;;;;;;;;;;;;;;;;;5489765;25;19930;-78
2024/04/12 00:34:26;;;;;;;;;;;;;;;;;;5490568;25;19987;-77
2024/04/12 00:36:54;;;;;;;;;;;;;;;;;;5490312;25;19952;-78
2024/04/12 00:39:35;;;;;;;;;;;;;;;;;;5490418;25;20399;-77
2024/04/12 00:42:10;;;;;;;;;;;;;;;;;;5489257;25;20280;-77
2024/04/12 00:44:40;;;;;;;;;;;;;;;;;;5490790;25;19946;-77
2024/04/12 00:47:16;;;;;;;;;;;;;;;;;;5490899;25;19919;-77
2024/04/12 00:49:49;;;;;;;;;;;;;;;;;;5489355;25;19920;-77
2024/04/12 00:52:16;;;;;;;;;;;;;;;;;;5488881;25;19947;-78
2024/04/12 00:54:43;;;;;;;;;;;;;;;;;;5489167;25;19984;-77
2024/04/12 00:57:10;;;;;;;;;;;;;;;;;;5490237;25;19931;-78
2024/04/12 00:59:37;;;;;;;;;;;;;;;;;;5488991;25;19930;-78
2024/04/12 01:02:08;;;;;;;;;;;;;;;;;;5490021;25;19920;-77
2024/04/12 01:04:36;;;;;;;;;;;;;;;;;;5490541;25;19920;-77
2024/04/12 01:07:06;;;;;;;;;;;;;;;;;;5490960;25;20219;-77
2024/04/12 01:09:35;;;;;;;;;;;;;;;;;;5490542;25;19992;-77
2024/04/12 01:12:02;;;;;;;;;;;;;;;;;;5489060;25;19926;-77
2024/04/12 01:14:29;;;;;;;;;;;;;;;;;;5490424;25;19924;-77
2024/04/12 01:16:56;;;;;;;;;;;;;;;;;;5490726;25;19919;-78
2024/04/12 01:19:22;;;;;;;;;;;;;;;;;;5490099;25;19953;-77
2024/04/12 01:21:49;;;;;;;;;;;;;;;;;;5490681;25;19931;-77
2024/04/12 01:24:16;;;;;;;;;;;;;;;;;;5490486;25;19932;-77
2024/04/12 01:26:44;;;;;;;;;;;;;;;;;;5505718;25;19995;-77
2024/04/12 01:29:11;;;;;;;;;;;;;;;;;;5489904;25;19965;-77
2024/04/12 01:31:39;;;;;;;;;;;;;;;;;;5490547;25;19983;-78
2024/04/12 01:34:13;;;;;;;;;;;;;;;;;;5489964;25;19920;-78
2024/04/12 01:36:42;;;;;;;;;;;;;;;;;;5490514;25;19928;-78
2024/04/12 01:39:11;;;;;;;;;;;;;;;;;;5489718;25;19987;-77
2024/04/12 01:41:38;;;;;;;;;;;;;;;;;;5490387;25;19928;-78
2024/04/12 01:44:06;;;;;;;;;;;;;;;;;;5489944;25;19927;-77
2024/04/12 01:46:34;;;;;;;;;;;;;;;;;;5488513;25;19920;-77
2024/04/12 01:49:05;;;;;;;;;;;;;;;;;;5486856;25;19920;-77
2024/04/12 01:51:35;;;;;;;;;;;;;;;;;;5489818;25;19952;-77
2024/04/12 01:54:13;;;;;;;;;;;;;;;;;;5489915;25;20339;-78
2024/04/12 01:56:41;;;;;;;;;;;;;;;;;;5487931;25;19932;-77
2024/04/12 01:59:08;;;;;;;;;;;;;;;;;;5489448;25;19920;-77
2024/04/12 02:01:35;;;;;;;;;;;;;;;;;;5490033;25;20347;-78
2024/04/12 02:04:02;;;;;;;;;;;;;;;;;;5489850;25;19928;-78
2024/04/12 02:06:33;;;;;;;;;;;;;;;;;;5489695;25;19952;-77
2024/04/12 02:09:04;;;;;;;;;;;;;;;;;;5489955;25;19928;-77
2024/04/12 02:11:31;;;;;;;;;;;;;;;;;;5489800;25;19924;-77
2024/04/12 02:13:58;;;;;;;;;;;;;;;;;;5489818;25;20311;-77
2024/04/12 02:16:25;;;;;;;;;;;;;;;;;;5489469;25;19920;-78
2024/04/12 02:18:52;;;;;;;;;;;;;;;;;;5489680;25;19992;-77
2024/04/12 02:21:19;;;;;;;;;;;;;;;;;;5489201;25;19924;-78
2024/04/12 02:23:48;;;;;;;;;;;;;;;;;;5489719;25;20288;-77
2024/04/12 02:26:15;;;;;;;;;;;;;;;;;;5504441;25;19987;-77
2024/04/12 02:28:43;;;;;;;;;;;;;;;;;;5489484;25;19989;-77
2024/04/12 02:31:09;;;;;;;;;;;;;;;;;;5488977;25;19924;-77
2024/04/12 02:33:36;;;;;;;;;;;;;;;;;;5489612;25;19928;-77
2024/04/12 02:36:11;;;;;;;;;;;;;;;;;;5489087;25;19956;-77
2024/04/12 02:38:39;;;;;;;;;;;;;;;;;;5487549;25;19926;-78
2024/04/12 02:41:07;;;;;;;;;;;;;;;;;;5489028;25;19920;-78
2024/04/12 02:43:35;;;;;;;;;;;;;;;;;;5489236;25;19927;-78
2024/04/12 02:46:02;;;;;;;;;;;;;;;;;;5487351;25;19969;-77
2024/04/12 02:48:29;;;;;;;;;;;;;;;;;;5488992;25;19955;-77
2024/04/12 02:51:03;;;;;;;;;;;;;;;;;;5489060;25;19920;-77
2024/04/12 02:53:30;;;;;;;;;;;;;;;;;;5488868;25;20323;-77
2024/04/12 02:56:00;;;;;;;;;;;;;;;;;;5489049;25;19919;-77
2024/04/12 02:58:38;;;;;;;;;;;;;;;;;;5488782;25;19927;-77
2024/04/12 03:01:12;;;;;;;;;;;;;;;;;;5490827;25;19920;-77
2024/04/12 03:03:45;;;;;;;;;;;;;;;;;;5492388;25;19931;-78
2024/04/12 03:06:17;;;;;;;;;;;;;;;;;;5491984;25;19931;-78
2024/04/12 03:08:47;;;;;;;;;;;;;;;;;;5492447;25;19993;-78
2024/04/12 03:11:21;;;;;;;;;;;;;;;;;;5492258;25;20353;-77
2024/04/12 03:13:52;;;;;;;;;;;;;;;;;;5492610;25;20364;-77
2024/04/12 03:16:20;;;;;;;;;;;;;;;;;;5492204;25;19920;-77
2024/04/12 03:18:48;;;;;;;;;;;;;;;;;;5492487;25;19960;-77
2024/04/12 03:21:15;;;;;;;;;;;;;;;;;;5491868;25;20247;-77
2024/04/12 03:23:44;;;;;;;;;;;;;;;;;;5492170;25;19932;-77
2024/04/12 03:26:11;;;;;;;;;;;;;;;;;;5506668;25;20357;-78
2024/04/12 03:28:39;;;;;;;;;;;;;;;;;;5473923;25;19932;-77
2024/04/12 03:31:07;;;;;;;;;;;;;;;;;;5491817;25;19928;-77
2024/04/12 03:33:35;;;;;;;;;;;;;;;;;;5492231;25;19931;-78
2024/04/12 03:36:25;;;;;;;;;;;;;;;;;;5492172;25;19931;-78
2024/04/12 03:39:18;;;;;;;;;;;;;;;;;;5491332;25;19958;-77
2024/04/12 03:41:36;;;;;;;;;;;;;;;;;;5491921;25;19927;-78
2024/04/12 03:44:08;;;;;;;;;;;;;;;;;;5491998;25;19948;-77
2024/04/12 03:46:35;;;;;;;;;;;;;;;;;;5491843;25;20032;-78
2024/04/12 03:49:02;;;;;;;;;;;;;;;;;;5490150;25;19931;-77
2024/04/12 03:51:29;;;;;;;;;;;;;;;;;;5491541;25;19924;-77
2024/04/12 03:54:11;;;;;;;;;;;;;;;;;;5492058;25;19962;-78
2024/04/12 03:56:38;;;;;;;;;;;;;;;;;;5491739;25;19932;-78
2024/04/12 03:59:04;;;;;;;;;;;;;;;;;;5491375;25;19996;-77
2024/04/12 04:01:31;;;;;;;;;;;;;;;;;;5491565;25;19924;-78
2024/04/12 04:04:00;;;;;;;;;;;;;;;;;;5491769;25;19924;-78
2024/04/12 04:06:35;;;;;;;;;;;;;;;;;;5489474;25;19927;-77
2024/04/12 04:09:05;;;;;;;;;;;;;;;;;;5489823;25;19928;-77
2024/04/12 04:11:33;;;;;;;;;;;;;;;;;;5490248;25;19944;-77
2024/04/12 04:14:08;;;;;;;;;;;;;;;;;;5491484;25;19926;-77
2024/04/12 04:16:38;;;;;;;;;;;;;;;;;;5491322;25;19928;-78
2024/04/12 04:19:12;;;;;;;;;;;;;;;;;;5491178;25;19948;-78
2024/04/12 04:21:41;;;;;;;;;;;;;;;;;;5489837;25;19920;-78
2024/04/12 04:24:10;;;;;;;;;;;;;;;;;;5491265;25;19931;-77
2024/04/12 04:26:38;;;;;;;;;;;;;;;;;;5506629;25;19931;-77
2024/04/12 04:29:11;;;;;;;;;;;;;;;;;;5490986;25;19956;-76
2024/04/12 04:31:43;;;;;;;;;;;;;;;;;;5489659;25;19952;-77
2024/04/12 04:34:12;;;;;;;;;;;;;;;;;;5490983;25;19935;-78
2024/04/12 04:36:39;;;;;;;;;;;;;;;;;;5489506;25;20206;-78
2024/04/12 04:39:15;;;;;;;;;;;;;;;;;;5490865;25;19988;-77
2024/04/12 04:41:45;;;;;;;;;;;;;;;;;;5491261;25;19988;-77
2024/04/12 04:44:14;;;;;;;;;;;;;;;;;;5490206;25;19924;-77
2024/04/12 04:46:48;;;;;;;;;;;;;;;;;;5489387;25;20338;-77
2024/04/12 04:49:16;;;;;;;;;;;;;;;;;;5488791;25;19988;-77
2024/04/12 04:51:45;;;;;;;;;;;;;;;;;;5491248;25;19988;-77
2024/04/12 04:54:13;;;;;;;;;;;;;;;;;;5490412;25;19920;-78
2024/04/12 04:56:41;;;;;;;;;;;;;;;;;;5489250;25;19928;-77
2024/04/12 04:59:08;;;;;;;;;;;;;;;;;;5490333;25;19924;-77
2024/04/12 05:01:35;;;;;;;;;;;;;;;;;;5490954;25;19931;-77
2024/04/12 05:04:02;;;;;;;;;;;;;;;;;;5490752;25;20447;-77
2024/04/12 05:06:30;;;;;;;;;;;;;;;;;;5488172;25;19930;-79
2024/04/12 05:09:00;;;;;;;;;;;;;;;;;;5488853;25;19932;-79
2024/04/12 05:11:30;;;;;;;;;;;;;;;;;;5488585;25;19988;-77
2024/04/12 05:13:57;;;;;;;;;;;;;;;;;;5488768;25;19992;-78
2024/04/12 05:16:25;;;;;;;;;;;;;;;;;;5490058;25;20000;-78
2024/04/12 05:18:54;;;;;;;;;;;;;;;;;;5490443;25;20267;-78
2024/04/12 05:21:23;;;;;;;;;;;;;;;;;;5489751;25;20338;-78
2024/04/12 05:23:53;;;;;;;;;;;;;;;;;;5488491;25;19936;-78
2024/04/12 05:26:20;;;;;;;;;;;;;;;;;;5505340;25;19919;-78
2024/04/12 05:28:48;;;;;;;;;;;;;;;;;;5490093;25;19931;-78
2024/04/12 05:31:14;;;;;;;;;;;;;;;;;;5487993;25;19919;-78
2024/04/12 05:33:43;;;;;;;;;;;;;;;;;;5490650;25;20343;-77
2024/04/12 05:36:10;;;;;;;;;;;;;;;;;;5489822;25;20314;-78
2024/04/12 05:38:37;;;;;;;;;;;;;;;;;;5490529;25;19992;-78
2024/04/12 05:41:09;;;;;;;;;;;;;;;;;;5489776;25;20378;-78
2024/04/12 05:43:38;;;;;;;;;;;;;;;;;;5489575;25;19931;-78
2024/04/12 05:46:05;;;;;;;;;;;;;;;;;;5487699;25;19919;-77
2024/04/12 05:48:36;;;;;;;;;;;;;;;;;;5488337;25;19926;-78
2024/04/12 05:51:03;;;;;;;;;;;;;;;;;;5487883;25;20353;-77
2024/04/12 05:53:30;;;;;;;;;;;;;;;;;;5489944;25;20315;-78
2024/04/12 05:58:44;;;;;;;;;;;;;;;;;;5489699;25;19955;-78
2024/04/12 06:01:11;;;;;;;;;;;;;;;;;;5488762;25;19926;-78
2024/04/12 06:03:42;;;;;;;;;;;;;;;;;;5489194;25;20335;-79
2024/04/12 06:06:12;;;;;;;;;;;;;;;;;;5488468;25;19932;-78
2024/04/12 06:08:41;;;;;;;;;;;;;;;;;;5487476;25;19984;-79
2024/04/12 06:11:09;;;;;;;;;;;;;;;;;;5486086;25;19948;-78
2024/04/12 06:13:36;;;;;;;;;;;;;;;;;;5489027;25;19920;-78
2024/04/12 06:16:03;;;;;;;;;;;;;;;;;;5488871;25;19931;-78
2024/04/12 06:18:30;;;;;;;;;;;;;;;;;;5488577;25;20331;-78
2024/04/12 06:20:57;;;;;;;;;;;;;;;;;;5488142;25;19936;-78
2024/04/12 06:23:24;;;;;;;;;;;;;;;;;;5485111;25;19935;-78
2024/04/12 06:25:58;;;;;;;;;;;;;;;;;;5495281;25;19935;-80
2024/04/12 06:28:25;;;;;;;;;;;;;;;;;;5480014;25;19924;-78
2024/04/12 06:30:56;;;;;;;;;;;;;;;;;;5449014;25;19993;-79
2024/04/12 06:33:23;;;;;;;;;;;;;;;;;;5448984;25;19952;-78
2024/04/12 06:35:52;;;;;;;;;;;;;;;;;;5450881;25;19931;-77
2024/04/12 06:38:22;;;;;;;;;;;;;;;;;;5456011;25;19928;-79
2024/04/12 06:41:26;;;;;;;;;;;;;;;;;;5453403;25;19933;-78
2024/04/12 06:43:45;;;;;;;;;;;;;;;;;;5450236;25;19924;-78
2024/04/12 06:46:13;;;;;;;;;;;;;;;;;;5450461;25;19924;-79
2024/04/12 06:48:41;;;;;;;;;;;;;;;;;;5452780;25;19928;-78
2024/04/12 06:51:12;;;;;;;;;;;;;;;;;;5452274;25;20292;-78
2024/04/12 06:53:45;;;;;;;;;;;;;;;;;;5452815;25;19932;-79
2024/04/12 06:56:16;;;;;;;;;;;;;;;;;;5455021;25;19920;-78
2024/04/12 06:58:46;;;;;;;;;;;;;;;;;;5456235;25;19989;-78
2024/04/12 07:01:13;;;;;;;;;;;;;;;;;;5455278;25;19920;-78
2024/04/12 07:03:45;;;;;;;;;;;;;;;;;;5456117;25;20304;-78
2024/04/12 07:06:14;;;;;;;;;;;;;;;;;;5455302;25;19925;-79
2024/04/12 07:08:49;;;;;;;;;;;;;;;;;;5455863;25;19928;-78
2024/04/12 07:11:17;;;;;;;;;;;;;;;;;;5455638;25;20295;-78
2024/04/12 07:13:49;;;;;;;;;;;;;;;;;;5455868;25;20232;-78
2024/04/12 07:16:18;;;;;;;;;;;;;;;;;;5455034;25;19927;-78
2024/04/12 07:18:45;;;;;;;;;;;;;;;;;;5455727;25;20287;-79
2024/04/12 07:21:15;;;;;;;;;;;;;;;;;;5455007;25;19920;-79
2024/04/12 07:23:46;;;;;;;;;;;;;;;;;;5455431;25;19932;-78
2024/04/12 07:26:26;;;;;;;;;;;;;;;;;;5483390;25;19963;-79
2024/04/12 07:28:59;;;;;;;;;;;;;;;;;;5491922;25;19920;-78
2024/04/12 07:31:30;;;;;;;;;;;;;;;;;;5491606;25;20239;-78
2024/04/12 07:34:01;;;;;;;;;;;;;;;;;;5490212;25;19927;-78
2024/04/12 07:36:30;;;;;;;;;;;;;;;;;;5489878;25;19932;-78
2024/04/12 07:39:01;;;;;;;;;;;;;;;;;;5492086;25;20331;-78
2024/04/12 07:41:31;;;;;;;;;;;;;;;;;;5491371;25;19943;-78
2024/04/12 07:43:58;;;;;;;;;;;;;;;;;;5491741;25;19930;-78
2024/04/12 07:46:33;;;;;;;;;;;;;;;;;;5490024;25;20223;-77
2024/04/12 07:49:01;;;;;;;;;;;;;;;;;;5492155;25;19924;-78
2024/04/12 07:51:31;;;;;;;;;;;;;;;;;;5491505;25;21026;-78
2024/04/12 07:54:03;;;;;;;;;;;;;;;;;;5491746;25;20000;-78
2024/04/12 07:56:37;;;;;;;;;;;;;;;;;;5489702;25;19919;-78
2024/04/12 07:59:15;;;;;;;;;;;;;;;;;;5491515;25;19920;-77
2024/04/12 08:01:45;;;;;;;;;;;;;;;;;;5491235;25;19920;-78
2024/04/12 08:04:36;;;;;;;;;;;;;;;;;;5491256;25;19931;-78
2024/04/12 08:07:13;;;;;;;;;;;;;;;;;;5489492;25;19920;-77
2024/04/12 08:09:44;;;;;;;;;;;;;;;;;;5490117;25;20216;-78
2024/04/12 08:12:17;;;;;;;;;;;;;;;;;;5490887;25;19936;-78
2024/04/12 08:15:06;;;;;;;;;;;;;;;;;;5491669;25;19988;-78
2024/04/12 08:17:40;;;;;;;;;;;;;;;;;;5491088;25;19927;-77
2024/04/12 08:20:14;;;;;;;;;;;;;;;;;;5490938;25;20248;-77
2024/04/12 08:22:44;;;;;;;;;;;;;;;;;;5491189;25;20222;-78
2024/04/12 08:25:17;;;;;;;;;;;;;;;;;;5490667;25;19924;-77
2024/04/12 08:27:46;;;;;;;;;;;;;;;;;;5507468;25;20346;-77
2024/04/12 08:30:13;;;;;;;;;;;;;;;;;;5488600;25;19952;-78
2024/04/12 08:32:48;;;;;;;;;;;;;;;;;;5490847;25;19928;-78
2024/04/12 08:35:19;;;;;;;;;;;;;;;;;;5460582;25;19920;-78
2024/04/12 08:37:47;;;;;;;;;;;;;;;;;;5489308;25;20399;-77
2024/04/12 08:40:21;;;;;;;;;;;;;;;;;;5490351;25;20335;-78
2024/04/12 08:42:48;;;;;;;;;;;;;;;;;;5490941;25;19934;-78
2024/04/12 08:45:18;;;;;;;;;;;;;;;;;;5490530;25;20356;-78
2024/04/12 08:48:02;;;;;;;;;;;;;;;;;;5490875;25;19924;-78
2024/04/12 08:50:34;;;;;;;;;;;;;;;;;;5489043;25;20335;-78
2024/04/12 08:53:11;;;;;;;;;;;;;;;;;;5489010;25;19931;-77
2024/04/12 08:55:43;;;;;;;;;;;;;;;;;;5490498;25;19924;-78
2024/04/12 08:58:10;;;;;;;;;;;;;;;;;;5489558;25;19988;-78
2024/04/12 09:00:39;;;;;;;;;;;;;;;;;;5488588;25;19930;-77
2024/04/12 09:03:24;;;;;;;;;;;;;;;;;;5490433;25;20235;-78
2024/04/12 09:05:56;;;;;;;;;;;;;;;;;;5490312;25;19930;-77
2024/04/12 09:08:28;;;;;;;;;;;;;;;;;;5488616;25;19919;-78
2024/04/12 09:10:59;;;;;;;;;;;;;;;;;;5490782;25;19943;-78
2024/04/12 09:13:32;;;;;;;;;;;;;;;;;;5490395;25;19920;-78
2024/04/12 09:16:02;;;;;;;;;;;;;;;;;;5488032;25;20358;-78
2024/04/12 09:18:43;;;;;;;;;;;;;;;;;;5490322;25;20300;-78
2024/04/12 09:21:24;;;;;;;;;;;;;;;;;;5488099;25;19920;-78
2024/04/12 09:23:56;;;;;;;;;;;;;;;;;;5488683;25;19933;-78
2024/04/12 09:26:24;;;;;;;;;;;;;;;;;;5505090;25;20290;-78
2024/04/12 09:29:09;;;;;;;;;;;;;;;;;;5490072;25;19989;-77
2024/04/12 09:34:55;;;;;;;;;;;;;;;;;;5523499;26;20031;-78
2024/04/12 09:37:29;;;;;;;;;;;;;;;;;;5492816;26;19919;-77
2024/04/12 09:40:24;;;;;;;;;;;;;;;;;;5493103;26;19990;-78
2024/04/12 09:42:45;;;;;;;;;;;;;;;;;;5522899;26;19919;-78
2024/04/12 09:45:20;;;;;;;;;;;;;;;;;;5523063;26;19921;-78
2024/04/12 10:37:58;;;;;;;;;;;;;;;;;;5489107;25;19987;-77
2024/04/12 10:40:28;;;;;;;;;;;;;;;;;;5488266;25;19996;-77
2024/04/12 10:42:56;;;;;;;;;;;;;;;;;;5489155;25;19919;-78
2024/04/12 10:45:25;;;;;;;;;;;;;;;;;;5488643;25;20357;-78
2024/04/12 10:47:56;;;;;;;;;;;;;;;;;;5488859;25;19930;-77
2024/04/12 10:50:23;;;;;;;;;;;;;;;;;;5486747;25;20351;-78
2024/04/12 10:52:51;;;;;;;;;;;;;;;;;;5486967;25;19923;-78
2024/04/12 10:55:20;;;;;;;;;;;;;;;;;;5488238;25;19919;-78
2024/04/12 10:57:47;;;;;;;;;;;;;;;;;;5489090;25;19989;-78
2024/04/12 11:00:15;;;;;;;;;;;;;;;;;;5488267;25;20384;-78
2024/04/12 11:02:54;;;;;;;;;;;;;;;;;;5488270;25;20345;-77
2024/04/12 11:08:02;;;;;;;;;;;;;;;;;;5488720;25;19931;-78
2024/04/12 11:10:54;;;;;;;;;;;;;;;;;;5488398;25;19919;-78
2024/04/12 11:13:29;;;;;;;;;;;;;;;;;;5488261;25;19931;-78
2024/04/12 11:32:18;;;;;;;;;;;;;;;;;;5491643;25;19956;-78
2024/04/12 11:34:45;;;;;;;;;;;;;;;;;;5492068;25;19927;-77
2024/04/12 11:37:13;;;;;;;;;;;;;;;;;;5490864;25;19955;-77
2024/04/12 11:39:41;;;;;;;;;;;;;;;;;;5492150;25;19987;-78
2024/04/12 11:42:15;;;;;;;;;;;;;;;;;;5491231;25;19931;-78
2024/04/12 11:44:47;;;;;;;;;;;;;;;;;;5490156;25;20350;-78
2024/04/12 11:47:16;;;;;;;;;;;;;;;;;;5491348;25;19924;-78
2024/04/12 11:49:46;;;;;;;;;;;;;;;;;;5491702;25;19924;-78
2024/04/12 11:52:16;;;;;;;;;;;;;;;;;;5491191;25;19936;-78
2024/04/12 11:54:46;;;;;;;;;;;;;;;;;;5491905;25;19928;-78
2024/04/12 11:57:13;;;;;;;;;;;;;;;;;;5491102;25;19992;-78
2024/04/12 11:59:43;;;;;;;;;;;;;;;;;;5491322;25;19924;-78
2024/04/12 12:02:14;;;;;;;;;;;;;;;;;;5490982;25;19988;-78
2024/04/12 12:04:41;;;;;;;;;;;;;;;;;;5491354;25;19932;-77
2024/04/12 12:07:11;;;;;;;;;;;;;;;;;;5489323;25;20250;-77
2024/04/12 12:09:38;;;;;;;;;;;;;;;;;;5491925;25;19920;-78
2024/04/12 12:12:10;;;;;;;;;;;;;;;;;;5490932;25;19930;-78
2024/04/12 12:14:38;;;;;;;;;;;;;;;;;;5489778;25;19920;-78
2024/04/12 12:17:06;;;;;;;;;;;;;;;;;;5490740;25;19920;-78
2024/04/12 12:19:33;;;;;;;;;;;;;;;;;;5489481;25;19924;-78
2024/04/12 12:22:00;;;;;;;;;;;;;;;;;;5491109;25;19932;-78
2024/04/12 12:24:27;;;;;;;;;;;;;;;;;;5491069;25;19927;-78
2024/04/12 12:26:53;;;;;;;;;;;;;;;;;;5506531;25;19979;-77
2024/04/12 12:29:21;;;;;;;;;;;;;;;;;;5490503;25;19992;-78
2024/04/12 12:31:48;;;;;;;;;;;;;;;;;;5489441;25;20292;-78
2024/04/12 12:34:14;;;;;;;;;;;;;;;;;;5489709;25;19992;-78
2024/04/12 12:36:41;;;;;;;;;;;;;;;;;;5491371;25;19931;-78
2024/04/12 12:39:09;;;;;;;;;;;;;;;;;;5490436;25;19926;-78
2024/04/12 12:41:36;;;;;;;;;;;;;;;;;;5489312;25;19951;-78
2024/04/12 12:44:06;;;;;;;;;;;;;;;;;;5489199;25;19948;-78
2024/04/12 12:46:32;;;;;;;;;;;;;;;;;;5490584;25;19935;-78
2024/04/12 12:49:00;;;;;;;;;;;;;;;;;;5491014;25;19936;-78
2024/04/12 12:51:27;;;;;;;;;;;;;;;;;;5488479;25;19924;-77
2024/04/12 12:53:54;;;;;;;;;;;;;;;;;;5489021;25;19935;-77
2024/04/12 12:56:20;;;;;;;;;;;;;;;;;;5488321;25;19969;-78
2024/04/12 12:58:47;;;;;;;;;;;;;;;;;;5490881;25;19926;-77
2024/04/12 13:01:16;;;;;;;;;;;;;;;;;;5490483;25;19984;-78
2024/04/12 13:03:46;;;;;;;;;;;;;;;;;;5490586;25;20239;-78
2024/04/12 13:06:22;;;;;;;;;;;;;;;;;;5490143;25;19924;-78
2024/04/12 13:08:49;;;;;;;;;;;;;;;;;;5490735;25;19966;-78
2024/04/12 13:11:24;;;;;;;;;;;;;;;;;;5490113;25;19931;-78
2024/04/12 13:13:51;;;;;;;;;;;;;;;;;;5490804;25;19962;-78
2024/04/12 13:16:18;;;;;;;;;;;;;;;;;;5490211;25;20256;-77
2024/04/12 13:18:45;;;;;;;;;;;;;;;;;;5490267;25;19935;-78
2024/04/12 13:21:12;;;;;;;;;;;;;;;;;;5487797;25;19936;-78
2024/04/12 13:23:40;;;;;;;;;;;;;;;;;;5490624;25;19920;-78
2024/04/12 13:26:07;;;;;;;;;;;;;;;;;;5503642;25;19931;-78
2024/04/12 13:28:34;;;;;;;;;;;;;;;;;;5491523;25;19931;-77
2024/04/12 13:31:01;;;;;;;;;;;;;;;;;;5490466;25;19923;-78
2024/04/12 13:33:27;;;;;;;;;;;;;;;;;;5489921;25;19919;-78
2024/04/12 13:35:54;;;;;;;;;;;;;;;;;;5489531;25;19920;-78
2024/04/12 13:38:25;;;;;;;;;;;;;;;;;;5490072;25;19934;-78
2024/04/12 13:40:54;;;;;;;;;;;;;;;;;;5488385;25;19919;-78
2024/04/12 13:43:25;;;;;;;;;;;;;;;;;;5487659;25;20216;-78
2024/04/12 13:51:22;;;;;;;;;;;;;;;;;;5489692;25;19920;-78
2024/04/12 13:53:52;;;;;;;;;;;;;;;;;;5489786;25;19931;-78
2024/04/12 13:56:20;;;;;;;;;;;;;;;;;;5489401;25;19920;-78
2024/04/12 13:58:53;;;;;;;;;;;;;;;;;;5489912;25;19932;-78
2024/04/12 14:01:23;;;;;;;;;;;;;;;;;;5487719;25;20238;-78
2024/04/12 14:03:53;;;;;;;;;;;;;;;;;;5490200;25;19920;-78
2024/04/12 14:06:25;;;;;;;;;;;;;;;;;;5488958;25;19935;-78
2024/04/12 14:08:52;;;;;;;;;;;;;;;;;;5489806;25;19941;-78
2024/04/12 14:11:19;;;;;;;;;;;;;;;;;;5489394;25;19962;-77
2024/04/12 14:13:46;;;;;;;;;;;;;;;;;;5489648;25;19991;-78
2024/04/12 14:16:13;;;;;;;;;;;;;;;;;;5489109;25;19920;-78
2024/04/12 14:18:40;;;;;;;;;;;;;;;;;;5489136;25;19923;-78
2024/04/12 14:21:07;;;;;;;;;;;;;;;;;;5488153;25;19988;-78
2024/04/12 14:23:34;;;;;;;;;;;;;;;;;;5488494;25;20339;-78
2024/04/12 14:26:01;;;;;;;;;;;;;;;;;;5489727;25;19931;-78
2024/04/12 14:28:28;;;;;;;;;;;;;;;;;;5489430;25;19936;-78
2024/04/12 14:30:55;;;;;;;;;;;;;;;;;;5488670;25;20411;-78
2024/04/12 14:33:22;;;;;;;;;;;;;;;;;;5488214;25;19987;-78
2024/04/12 14:35:51;;;;;;;;;;;;;;;;;;5488407;25;19923;-78
2024/04/12 14:38:19;;;;;;;;;;;;;;;;;;5488249;25;19920;-78
2024/04/12 14:40:51;;;;;;;;;;;;;;;;;;5483533;25;19980;-78
2024/04/12 14:43:18;;;;;;;;;;;;;;;;;;5487721;25;20370;-78
2024/04/12 14:45:45;;;;;;;;;;;;;;;;;;5488220;25;19919;-78
2024/04/12 14:48:12;;;;;;;;;;;;;;;;;;5487518;25;20396;-79
2024/04/12 14:50:40;;;;;;;;;;;;;;;;;;5488396;25;19928;-78
2024/04/12 14:53:07;;;;;;;;;;;;;;;;;;5487368;25;20294;-78
2024/04/12 14:55:34;;;;;;;;;;;;;;;;;;5488053;25;20342;-76
2024/04/12 14:58:01;;;;;;;;;;;;;;;;;;5491817;25;19952;-76
2024/04/12 15:00:27;;;;;;;;;;;;;;;;;;5489212;25;19920;-75
2024/04/12 15:49:34;;;;;;;;;;;;;;;;;;5488211;25;19948;-75
2024/04/12 15:52:10;;;;;;;;;;;;;;;;;;5486339;25;20369;-75
2024/04/12 15:54:51;;;;;;;;;;;;;;;;;;5491037;25;19928;-75
2024/04/12 16:11:10;;;;;;;;;;;;;;;;;;5490969;25;19948;-75
2024/04/12 16:13:37;;;;;;;;;;;;;;;;;;5491345;25;19927;-75
2024/04/12 16:16:04;;;;;;;;;;;;;;;;;;5490909;25;19926;-74
2024/04/12 16:18:31;;;;;;;;;;;;;;;;;;5491403;25;19988;-75
2024/04/12 16:20:58;;;;;;;;;;;;;;;;;;5491362;25;19988;-75
2024/04/12 16:23:27;;;;;;;;;;;;;;;;;;5490661;25;20248;-78
2024/04/12 16:25:54;;;;;;;;;;;;;;;;;;5500113;25;20315;-78
2024/04/12 16:28:30;;;;;;;;;;;;;;;;;;5493156;25;20291;-77
2024/04/12 16:30:57;;;;;;;;;;;;;;;;;;5491501;25;19930;-75
2024/04/12 16:33:27;;;;;;;;;;;;;;;;;;5489330;25;19939;-78
2024/04/12 16:35:54;;;;;;;;;;;;;;;;;;5488596;25;19931;-78
2024/04/12 16:38:21;;;;;;;;;;;;;;;;;;5490388;25;19924;-78
2024/04/12 16:40:48;;;;;;;;;;;;;;;;;;5490685;25;19919;-77
2024/04/12 16:43:15;;;;;;;;;;;;;;;;;;5489486;25;19956;-79
2024/04/12 16:45:41;;;;;;;;;;;;;;;;;;5491373;25;20051;-78
2024/04/12 16:48:08;;;;;;;;;;;;;;;;;;5490750;25;20538;-78
2024/04/12 16:50:35;;;;;;;;;;;;;;;;;;5490655;25;19952;-78
2024/04/12 16:53:02;;;;;;;;;;;;;;;;;;5489294;25;19931;-80
2024/04/12 16:55:29;;;;;;;;;;;;;;;;;;5490765;25;19931;-81
2024/04/12 16:57:59;;;;;;;;;;;;;;;;;;5490815;25;19988;-80
2024/04/12 17:00:28;;;;;;;;;;;;;;;;;;5487688;25;20380;-80
2024/04/12 17:02:55;;;;;;;;;;;;;;;;;;5490024;25;19927;-80
2024/04/12 17:05:22;;;;;;;;;;;;;;;;;;5489312;25;20357;-81
2024/04/12 17:07:49;;;;;;;;;;;;;;;;;;5503454;25;20315;-82
2024/04/12 17:10:16;;;;;;;;;;;;;;;;;;5488307;25;20305;-81
2024/04/12 17:12:46;;;;;;;;;;;;;;;;;;5489573;25;19920;-81
2024/04/12 17:15:13;;;;;;;;;;;;;;;;;;5487642;25;20242;-82
2024/04/12 17:17:40;;;;;;;;;;;;;;;;;;5490037;25;20258;-81
2024/04/12 17:20:08;;;;;;;;;;;;;;;;;;5486790;25;19931;-81
2024/04/12 17:22:38;;;;;;;;;;;;;;;;;;5484340;25;20244;-81
2024/04/12 17:25:04;;;;;;;;;;;;;;;;;;5489091;25;19923;-80
2024/04/12 17:28:55;;;;;;;9.05;2.90;;;;;;;;;;5430782;26;20330;-77
2024/04/12 17:31:22;;;;;;;8.82;2.92;;;;;;;;;;5434712;26;20032;-77
2024/04/12 17:33:49;;;;;;;7.95;2.78;;;;;;;;;;5453842;26;20365;-77
2024/04/12 17:36:17;;;;;;;5.93;2.92;;;;;;;;;;5434468;26;20049;-77
2024/04/12 17:38:44;;;;;;;7.80;2.80;;;;;;;;;;5432943;26;20462;-77
2024/04/12 17:41:11;;;;;;;8.52;3.40;;;;;;;;;;5434364;26;20010;-77
2024/04/12 17:43:38;;;;;;;8.98;3.45;;;;;;;;;;5434258;26;20007;-77
2024/04/12 17:46:05;;;;;;;6.43;2.63;;;;;;;;;;5458944;26;20003;-76
2024/04/12 17:48:31;;;;;;;8.10;2.78;;;;;;;;;;5431177;26;20353;-77
2024/04/12 17:50:59;;;;;;;7.80;2.40;;;;;;;;;;5430803;26;20338;-77
2024/04/12 17:53:26;;;;;;;6.75;2.85;;;;;;;;;;5430775;26;20014;-77
2024/04/12 17:55:57;;;;;;;8.10;2.67;;;;;;;;;;5430853;26;20454;-76
2024/04/12 17:58:26;;;;;;;9.48;3.15;;;;;;;;;;5430900;26;20471;-76
2024/04/12 18:01:03;;;;;;;7.43;2.78;;;;;;;;;;5433586;26;20072;-77
2024/04/12 18:03:31;;;;;;;9.30;3.30;;;;;;;;;;5434358;26;20022;-77
2024/04/12 18:05:58;;;;;;;8.52;2.97;;;;;;;;;;5434946;26;19992;-76
2024/04/12 18:08:25;;;;;;;7.05;2.70;;;;;;;;;;5434169;26;19999;-78
2024/04/12 18:11:00;;;;;;;8.38;2.25;;;;;;;;;;5434411;26;19999;-78
2024/04/12 18:13:28;;;;;;;8.38;2.95;;;;;;;;;;5434160;26;20031;-77
2024/04/12 18:15:55;;;;;;;8.98;3.00;;;;;;;;;;5434733;26;20014;-77
2024/04/12 18:18:23;;;;;;;5.43;2.33;;;;;;;;;;5432110;26;20000;-76
2024/04/12 18:20:53;;;;;;;10.25;3.70;;;;;;;;;;5434568;26;20007;-77
2024/04/12 18:23:21;;;;;;;8.43;2.63;;;;;;;;;;5433759;26;20037;-77
2024/04/12 18:25:53;;;;;;;10.02;2.75;;;;;;;;;;5434512;26;20115;-77
2024/04/12 18:28:23;;;;;;;10.35;3.15;;;;;;;;;;5433658;26;20010;-77
2024/04/12 18:30:50;;;;;;;8.23;2.40;;;;;;;;;;5432440;26;20017;-77
2024/04/12 18:33:20;;;;;;;7.45;2.40;;;;;;;;;;5432079;26;20007;-77
2024/04/12 18:36:01;;;;;;;8.30;2.80;;;;;;;;;;5433935;26;20011;-76
2024/04/12 18:46:45;;;;;;;5.40;2.70;;;;;;;;;;5418162;26;20014;-77
2024/04/12 18:49:13;;;;;;;8.00;3.00;;;;;;;;;;5418411;26;20059;-77
2024/04/12 18:51:40;;;;;;;9.40;3.37;;;;;;;;;;5419024;26;20010;-76
2024/04/12 18:54:07;;;;;;;6.80;3.00;;;;;;;;;;5418300;26;20229;-76
2024/04/12 18:56:36;;;;;;;9.00;3.00;;;;;;;;;;5418493;26;20069;-77
2024/04/12 18:59:03;;;;;;;8.00;3.10;;;;;;;;;;5418754;26;20004;-76
2024/04/12 19:01:29;;;;;;;8.77;3.45;;;;;;;;;;5418238;26;19999;-76
2024/04/12 19:03:58;;;;;;;6.90;2.50;;;;;;;;;;5418612;26;19995;-77
2024/04/12 19:06:26;;;;;;;8.52;2.97;;;;;;;;;;5417625;26;20004;-77
2024/04/12 19:08:53;;;;;;;8.32;3.20;;;;;;;;;;5418432;26;20303;-77
2024/04/12 19:11:21;;;;;;;9.68;3.38;;;;;;;;;;5418150;26;20011;-76
2024/04/12 19:13:48;;;;;;;9.23;2.88;;;;;;;;;;5417263;26;20035;-77
2024/04/12 19:16:15;;;;;;;8.38;3.50;;;;;;;;;;5417873;26;20000;-77
2024/04/12 19:18:42;;;;;;;12.85;3.35;;;;;;;;;;5418405;26;20380;-77